sensor_id;sensor_type;location;lat;lon;timestamp;pressure;altitude;pressure_sealevel;temperature;humidity
58757;BME280;44527;47.460;19.016;2023-03-14T00:02:52;99529.56;;;7.01;61.62
58757;BME280;44527;47.460;19.016;2023-03-14T00:05:55;99527.66;;;6.90;61.26
58757;BME280;44527;47.460;19.016;2023-03-14T00:08:58;99517.22;;;6.90;61.98
58757;BME280;44527;47.460;19.016;2023-03-14T00:12:00;99511.66;;;7.09;60.62
58757;BME280;44527;47.460;19.016;2023-03-14T00:15:05;99510.03;;;7.21;59.88
58757;BME280;44527;47.460;19.016;2023-03-14T00:18:09;99499.59;;;7.21;60.56
58757;BME280;44527;47.460;19.016;2023-03-14T00:21:12;99496.03;;;7.34;59.53
58757;BME280;44527;47.460;19.016;2023-03-14T00:24:15;99493.75;;;7.30;59.73
58757;BME280;44527;47.460;19.016;2023-03-14T00:27:17;99487.59;;;7.31;59.81
58757;BME280;44527;47.460;19.016;2023-03-14T00:30:20;99491.50;;;7.38;59.64
58757;BME280;44527;47.460;19.016;2023-03-14T00:33:22;99477.47;;;7.39;58.94
58757;BME280;44527;47.460;19.016;2023-03-14T00:36:25;99476.66;;;7.39;59.46
58757;BME280;44527;47.460;19.016;2023-03-14T00:39:27;99462.44;;;7.43;59.68
58757;BME280;44527;47.460;19.016;2023-03-14T00:42:31;99461.63;;;7.42;59.77
58757;BME280;44527;47.460;19.016;2023-03-14T00:45:34;99462.97;;;7.48;59.34
58757;BME280;44527;47.460;19.016;2023-03-14T00:48:37;99462.44;;;7.55;59.44
58757;BME280;44527;47.460;19.016;2023-03-14T00:51:39;99476.78;;;7.63;58.62
58757;BME280;44527;47.460;19.016;2023-03-14T00:54:43;99459.53;;;7.73;58.27
58757;BME280;44527;47.460;19.016;2023-03-14T00:57:45;99455.69;;;7.66;58.38
58757;BME280;44527;47.460;19.016;2023-03-14T01:00:48;99447.94;;;7.64;58.74
58757;BME280;44527;47.460;19.016;2023-03-14T01:03:53;99435.72;;;7.65;58.62
58757;BME280;44527;47.460;19.016;2023-03-14T01:06:56;99433.31;;;7.62;59.21
58757;BME280;44527;47.460;19.016;2023-03-14T01:09:58;99446.91;;;7.67;58.95
58757;BME280;44527;47.460;19.016;2023-03-14T01:13:01;99441.12;;;7.74;58.50
58757;BME280;44527;47.460;19.016;2023-03-14T01:16:04;99436.34;;;7.55;59.42
58757;BME280;44527;47.460;19.016;2023-03-14T01:19:11;99439.28;;;7.64;58.42
58757;BME280;44527;47.460;19.016;2023-03-14T01:22:13;99434.88;;;7.64;58.87
58757;BME280;44527;47.460;19.016;2023-03-14T01:25:17;99427.25;;;7.61;58.84
58757;BME280;44527;47.460;19.016;2023-03-14T01:28:21;99423.72;;;7.75;58.76
58757;BME280;44527;47.460;19.016;2023-03-14T01:31:24;99417.97;;;7.57;58.89
58757;BME280;44527;47.460;19.016;2023-03-14T01:34:27;99400.59;;;7.56;58.91
58757;BME280;44527;47.460;19.016;2023-03-14T01:37:30;99380.78;;;7.53;59.09
58757;BME280;44527;47.460;19.016;2023-03-14T01:40:33;99377.44;;;7.51;59.02
58757;BME280;44527;47.460;19.016;2023-03-14T01:43:36;99384.75;;;7.46;59.54
58757;BME280;44527;47.460;19.016;2023-03-14T01:46:41;99376.81;;;7.48;59.49
58757;BME280;44527;47.460;19.016;2023-03-14T01:49:47;99382.25;;;7.45;59.43
58757;BME280;44527;47.460;19.016;2023-03-14T01:52:51;99373.69;;;7.43;59.94
58757;BME280;44527;47.460;19.016;2023-03-14T01:55:55;99354.78;;;7.52;59.54
58757;BME280;44527;47.460;19.016;2023-03-14T01:58:59;99347.38;;;7.33;59.82
58757;BME280;44527;47.460;19.016;2023-03-14T02:02:05;99345.81;;;7.30;60.30
58757;BME280;44527;47.460;19.016;2023-03-14T02:05:10;99354.19;;;7.23;60.64
58757;BME280;44527;47.460;19.016;2023-03-14T02:08:17;99342.78;;;7.24;60.69
58757;BME280;44527;47.460;19.016;2023-03-14T02:11:21;99343.81;;;7.34;60.42
58757;BME280;44527;47.460;19.016;2023-03-14T02:14:33;99335.91;;;7.35;60.60
58757;BME280;44527;47.460;19.016;2023-03-14T02:17:37;99339.44;;;7.47;60.53
58757;BME280;44527;47.460;19.016;2023-03-14T02:24:11;99326.69;;;7.30;61.16
58757;BME280;44527;47.460;19.016;2023-03-14T02:27:18;99322.84;;;7.35;60.95
58757;BME280;44527;47.460;19.016;2023-03-14T02:30:25;99307.47;;;7.31;61.14
58757;BME280;44527;47.460;19.016;2023-03-14T02:33:31;99306.13;;;7.25;61.12
58757;BME280;44527;47.460;19.016;2023-03-14T02:36:34;99291.22;;;7.27;61.62
58757;BME280;44527;47.460;19.016;2023-03-14T02:39:39;99302.81;;;7.23;61.81
58757;BME280;44527;47.460;19.016;2023-03-14T02:42:44;99285.56;;;7.21;61.90
58757;BME280;44527;47.460;19.016;2023-03-14T02:45:48;99278.56;;;7.21;62.09
58757;BME280;44527;47.460;19.016;2023-03-14T02:48:56;99274.50;;;7.30;62.09
58757;BME280;44527;47.460;19.016;2023-03-14T02:51:59;99290.25;;;7.28;61.88
58757;BME280;44527;47.460;19.016;2023-03-14T02:55:02;99282.63;;;7.25;62.31
58757;BME280;44527;47.460;19.016;2023-03-14T02:58:06;99271.56;;;7.34;62.27
58757;BME280;44527;47.460;19.016;2023-03-14T03:01:09;99268.81;;;7.49;61.82
58757;BME280;44527;47.460;19.016;2023-03-14T03:04:12;99272.03;;;7.52;61.90
58757;BME280;44527;47.460;19.016;2023-03-14T03:07:15;99259.84;;;7.77;61.30
58757;BME280;44527;47.460;19.016;2023-03-14T03:10:17;99250.66;;;7.84;60.84
58757;BME280;44527;47.460;19.016;2023-03-14T03:13:20;99249.94;;;8.06;60.85
58757;BME280;44527;47.460;19.016;2023-03-14T03:16:23;99249.88;;;7.95;60.80
58757;BME280;44527;47.460;19.016;2023-03-14T03:19:25;99248.81;;;7.97;60.72
58757;BME280;44527;47.460;19.016;2023-03-14T03:22:28;99246.19;;;7.97;60.74
58757;BME280;44527;47.460;19.016;2023-03-14T03:25:31;99241.78;;;7.74;61.97
58757;BME280;44527;47.460;19.016;2023-03-14T03:28:35;99241.25;;;7.81;61.34
58757;BME280;44527;47.460;19.016;2023-03-14T03:31:39;99228.69;;;7.63;62.04
58757;BME280;44527;47.460;19.016;2023-03-14T03:34:41;99236.22;;;7.54;62.38
58757;BME280;44527;47.460;19.016;2023-03-14T03:37:45;99224.09;;;7.66;62.54
58757;BME280;44527;47.460;19.016;2023-03-14T03:40:47;99221.97;;;7.47;63.38
58757;BME280;44527;47.460;19.016;2023-03-14T03:43:50;99219.78;;;7.28;64.97
58757;BME280;44527;47.460;19.016;2023-03-14T03:46:53;99215.22;;;7.19;64.35
58757;BME280;44527;47.460;19.016;2023-03-14T03:49:56;99216.44;;;7.39;64.10
58757;BME280;44527;47.460;19.016;2023-03-14T03:52:59;99207.19;;;7.09;65.31
58757;BME280;44527;47.460;19.016;2023-03-14T03:56:02;99212.72;;;7.18;65.60
58757;BME280;44527;47.460;19.016;2023-03-14T03:59:05;99212.44;;;6.97;66.61
58757;BME280;44527;47.460;19.016;2023-03-14T04:02:07;99212.12;;;7.01;66.10
58757;BME280;44527;47.460;19.016;2023-03-14T04:05:10;99226.22;;;6.86;66.39
58757;BME280;44527;47.460;19.016;2023-03-14T04:08:14;99224.03;;;6.80;67.56
58757;BME280;44527;47.460;19.016;2023-03-14T04:11:17;99226.53;;;6.81;66.97
58757;BME280;44527;47.460;19.016;2023-03-14T04:14:20;99219.25;;;6.86;67.23
58757;BME280;44527;47.460;19.016;2023-03-14T04:17:23;99211.91;;;6.79;67.12
58757;BME280;44527;47.460;19.016;2023-03-14T04:20:26;99222.16;;;6.82;67.50
58757;BME280;44527;47.460;19.016;2023-03-14T04:23:29;99212.84;;;7.03;66.54
58757;BME280;44527;47.460;19.016;2023-03-14T04:26:31;99219.03;;;6.77;67.70
58757;BME280;44527;47.460;19.016;2023-03-14T04:29:34;99201.41;;;6.80;67.75
58757;BME280;44527;47.460;19.016;2023-03-14T04:32:38;99194.22;;;6.71;68.45
58757;BME280;44527;47.460;19.016;2023-03-14T04:35:41;99207.63;;;6.39;69.70
58757;BME280;44527;47.460;19.016;2023-03-14T04:38:44;99206.38;;;6.19;69.83
58757;BME280;44527;47.460;19.016;2023-03-14T04:41:47;99217.22;;;6.26;69.89
58757;BME280;44527;47.460;19.016;2023-03-14T04:44:49;99203.97;;;6.16;69.85
58757;BME280;44527;47.460;19.016;2023-03-14T04:47:53;99205.41;;;6.20;69.97
58757;BME280;44527;47.460;19.016;2023-03-14T04:50:57;99207.81;;;6.36;69.60
58757;BME280;44527;47.460;19.016;2023-03-14T04:54:00;99206.09;;;6.50;69.39
58757;BME280;44527;47.460;19.016;2023-03-14T04:57:02;99207.13;;;6.73;68.38
58757;BME280;44527;47.460;19.016;2023-03-14T05:00:07;99202.03;;;6.84;67.83
58757;BME280;44527;47.460;19.016;2023-03-14T05:03:11;99205.97;;;6.89;67.78
58757;BME280;44527;47.460;19.016;2023-03-14T05:06:16;99203.38;;;6.89;67.92
58757;BME280;44527;47.460;19.016;2023-03-14T05:09:18;99198.44;;;6.98;67.50
58757;BME280;44527;47.460;19.016;2023-03-14T05:12:21;99203.78;;;6.96;67.77
58757;BME280;44527;47.460;19.016;2023-03-14T05:15:24;99193.44;;;7.07;67.03
58757;BME280;44527;47.460;19.016;2023-03-14T05:18:26;99193.47;;;7.31;66.01
58757;BME280;44527;47.460;19.016;2023-03-14T05:21:29;99190.84;;;7.44;65.66
58757;BME280;44527;47.460;19.016;2023-03-14T05:24:35;99189.84;;;7.58;64.79
58757;BME280;44527;47.460;19.016;2023-03-14T05:27:37;99178.19;;;7.75;63.90
58757;BME280;44527;47.460;19.016;2023-03-14T05:30:41;99175.66;;;7.97;62.64
58757;BME280;44527;47.460;19.016;2023-03-14T05:33:44;99175.12;;;8.16;62.41
58757;BME280;44527;47.460;19.016;2023-03-14T05:36:47;99177.87;;;8.26;61.66
58757;BME280;44527;47.460;19.016;2023-03-14T05:39:50;99168.22;;;8.50;60.43
58757;BME280;44527;47.460;19.016;2023-03-14T05:42:53;99157.41;;;8.78;59.80
58757;BME280;44527;47.460;19.016;2023-03-14T05:45:57;99157.03;;;9.05;58.63
58757;BME280;44527;47.460;19.016;2023-03-14T05:49:01;99162.53;;;9.56;57.45
58757;BME280;44527;47.460;19.016;2023-03-14T05:52:04;99179.31;;;10.29;55.01
58757;BME280;44527;47.460;19.016;2023-03-14T05:55:08;99183.25;;;10.96;52.47
58757;BME280;44527;47.460;19.016;2023-03-14T05:58:11;99183.97;;;11.58;50.97
58757;BME280;44527;47.460;19.016;2023-03-14T06:01:14;99182.47;;;12.53;48.24
58757;BME280;44527;47.460;19.016;2023-03-14T06:04:18;99190.41;;;14.09;45.10
58757;BME280;44527;47.460;19.016;2023-03-14T06:07:22;99195.00;;;14.94;41.85
58757;BME280;44527;47.460;19.016;2023-03-14T06:10:25;99192.53;;;15.01;41.33
58757;BME280;44527;47.460;19.016;2023-03-14T06:13:27;99192.31;;;15.29;40.83
58757;BME280;44527;47.460;19.016;2023-03-14T06:16:30;99176.50;;;15.45;40.03
58757;BME280;44527;47.460;19.016;2023-03-14T06:19:34;99179.91;;;15.72;39.65
58757;BME280;44527;47.460;19.016;2023-03-14T06:22:37;99177.37;;;15.54;39.79
58757;BME280;44527;47.460;19.016;2023-03-14T06:25:40;99180.25;;;15.69;39.07
58757;BME280;44527;47.460;19.016;2023-03-14T06:28:43;99178.81;;;15.48;40.20
58757;BME280;44527;47.460;19.016;2023-03-14T06:31:45;99179.78;;;14.97;40.56
58757;BME280;44527;47.460;19.016;2023-03-14T06:34:49;99184.53;;;13.79;43.33
58757;BME280;44527;47.460;19.016;2023-03-14T06:37:52;99183.16;;;13.57;43.67
58757;BME280;44527;47.460;19.016;2023-03-14T06:40:55;99187.66;;;13.19;45.00
58757;BME280;44527;47.460;19.016;2023-03-14T06:44:00;99187.81;;;12.61;45.98
58757;BME280;44527;47.460;19.016;2023-03-14T06:47:03;99189.69;;;12.41;46.44
58757;BME280;44527;47.460;19.016;2023-03-14T06:50:09;99192.16;;;12.52;46.51
58757;BME280;44527;47.460;19.016;2023-03-14T06:53:12;99194.84;;;12.13;48.51
58757;BME280;44527;47.460;19.016;2023-03-14T06:56:16;99191.59;;;11.71;48.97
58757;BME280;44527;47.460;19.016;2023-03-14T06:59:19;99189.88;;;11.91;48.78
58757;BME280;44527;47.460;19.016;2023-03-14T07:02:23;99192.16;;;11.84;48.93
58757;BME280;44527;47.460;19.016;2023-03-14T07:05:45;99196.94;;;12.00;48.77
58757;BME280;44527;47.460;19.016;2023-03-14T07:08:48;99186.78;;;12.15;48.94
58757;BME280;44527;47.460;19.016;2023-03-14T07:11:52;99191.03;;;12.55;48.10
58757;BME280;44527;47.460;19.016;2023-03-14T07:14:55;99188.53;;;12.63;47.75
58757;BME280;44527;47.460;19.016;2023-03-14T07:18:06;99178.16;;;12.52;47.68
58757;BME280;44527;47.460;19.016;2023-03-14T07:21:09;99191.59;;;12.58;48.08
58757;BME280;44527;47.460;19.016;2023-03-14T07:24:12;99198.19;;;12.72;48.05
58757;BME280;44527;47.460;19.016;2023-03-14T07:27:15;99188.19;;;13.23;47.28
58757;BME280;44527;47.460;19.016;2023-03-14T07:30:17;99182.69;;;13.44;46.27
58757;BME280;44527;47.460;19.016;2023-03-14T07:33:20;99178.84;;;13.74;45.74
58757;BME280;44527;47.460;19.016;2023-03-14T07:36:23;99176.31;;;14.18;44.60
58757;BME280;44527;47.460;19.016;2023-03-14T07:39:25;99181.25;;;14.39;45.02
58757;BME280;44527;47.460;19.016;2023-03-14T07:42:29;99169.72;;;14.22;44.69
58757;BME280;44527;47.460;19.016;2023-03-14T07:45:32;99164.31;;;14.06;45.32
58757;BME280;44527;47.460;19.016;2023-03-14T07:48:44;99157.03;;;14.25;44.86
58757;BME280;44527;47.460;19.016;2023-03-14T07:51:49;99159.44;;;14.37;44.97
58757;BME280;44527;47.460;19.016;2023-03-14T07:54:52;99156.31;;;14.59;44.95
58757;BME280;44527;47.460;19.016;2023-03-14T07:57:54;99154.13;;;14.81;43.92
58757;BME280;44527;47.460;19.016;2023-03-14T08:00:58;99153.94;;;14.74;44.28
58757;BME280;44527;47.460;19.016;2023-03-14T08:04:01;99135.62;;;14.73;44.29
58757;BME280;44527;47.460;19.016;2023-03-14T08:07:03;99136.25;;;14.75;44.59
58757;BME280;44527;47.460;19.016;2023-03-14T08:10:06;99136.34;;;14.91;45.04
58757;BME280;44527;47.460;19.016;2023-03-14T08:13:10;99128.38;;;15.33;43.84
58757;BME280;44527;47.460;19.016;2023-03-14T08:16:12;99116.19;;;15.40;43.82
58757;BME280;44527;47.460;19.016;2023-03-14T08:19:15;99112.28;;;15.02;43.54
58757;BME280;44527;47.460;19.016;2023-03-14T08:22:17;99106.41;;;15.33;44.20
58757;BME280;44527;47.460;19.016;2023-03-14T08:25:21;99108.50;;;15.80;43.42
58757;BME280;44527;47.460;19.016;2023-03-14T08:28:23;99111.31;;;15.70;43.38
58757;BME280;44527;47.460;19.016;2023-03-14T08:31:27;99117.94;;;15.82;43.68
58757;BME280;44527;47.460;19.016;2023-03-14T08:34:29;99105.38;;;16.01;43.28
58757;BME280;44527;47.460;19.016;2023-03-14T08:37:32;99108.47;;;16.29;42.70
58757;BME280;44527;47.460;19.016;2023-03-14T08:40:35;99110.25;;;16.45;42.26
58757;BME280;44527;47.460;19.016;2023-03-14T08:43:37;99097.41;;;16.25;42.48
58757;BME280;44527;47.460;19.016;2023-03-14T08:46:41;99101.56;;;15.95;42.45
58757;BME280;44527;47.460;19.016;2023-03-14T08:49:44;99093.44;;;15.72;43.56
58757;BME280;44527;47.460;19.016;2023-03-14T08:52:47;99087.03;;;15.83;42.58
58757;BME280;44527;47.460;19.016;2023-03-14T08:55:53;99085.00;;;15.85;42.85
58757;BME280;44527;47.460;19.016;2023-03-14T08:58:56;99081.66;;;15.67;44.52
58757;BME280;44527;47.460;19.016;2023-03-14T09:01:59;99076.88;;;15.54;44.37
58757;BME280;44527;47.460;19.016;2023-03-14T09:05:06;99068.00;;;15.71;43.68
58757;BME280;44527;47.460;19.016;2023-03-14T09:08:08;99066.66;;;15.67;44.33
58757;BME280;44527;47.460;19.016;2023-03-14T09:11:13;99068.28;;;15.52;44.21
58757;BME280;44527;47.460;19.016;2023-03-14T09:14:16;99061.34;;;15.59;43.33
58757;BME280;44527;47.460;19.016;2023-03-14T09:17:19;99072.91;;;15.50;43.90
58757;BME280;44527;47.460;19.016;2023-03-14T09:20:21;99052.06;;;15.55;44.60
58757;BME280;44527;47.460;19.016;2023-03-14T09:23:24;99051.94;;;15.81;44.26
58757;BME280;44527;47.460;19.016;2023-03-14T09:26:26;99047.00;;;15.86;44.23
58757;BME280;44527;47.460;19.016;2023-03-14T09:29:29;99035.75;;;15.92;43.45
58757;BME280;44527;47.460;19.016;2023-03-14T09:32:31;99032.41;;;16.06;43.15
58757;BME280;44527;47.460;19.016;2023-03-14T09:35:34;99027.78;;;16.08;43.40
58757;BME280;44527;47.460;19.016;2023-03-14T09:38:37;99021.84;;;15.90;43.48
58757;BME280;44527;47.460;19.016;2023-03-14T09:41:47;99004.09;;;16.15;44.33
58757;BME280;44527;47.460;19.016;2023-03-14T09:45:02;99012.63;;;16.34;42.44
58757;BME280;44527;47.460;19.016;2023-03-14T09:48:05;98994.50;;;16.22;42.60
58757;BME280;44527;47.460;19.016;2023-03-14T09:51:14;98992.88;;;16.13;44.53
58757;BME280;44527;47.460;19.016;2023-03-14T09:54:34;98992.97;;;16.28;43.62
58757;BME280;44527;47.460;19.016;2023-03-14T09:57:37;98986.06;;;16.58;44.11
58757;BME280;44527;47.460;19.016;2023-03-14T10:00:41;98976.03;;;16.85;43.42
58757;BME280;44527;47.460;19.016;2023-03-14T10:03:45;98971.84;;;17.13;42.85
58757;BME280;44527;47.460;19.016;2023-03-14T10:06:48;98962.22;;;17.35;42.57
58757;BME280;44527;47.460;19.016;2023-03-14T10:09:51;98958.53;;;18.12;42.49
58757;BME280;44527;47.460;19.016;2023-03-14T10:13:12;98944.09;;;18.51;40.02
58757;BME280;44527;47.460;19.016;2023-03-14T10:16:16;98946.53;;;18.82;37.99
58757;BME280;44527;47.460;19.016;2023-03-14T10:19:21;98937.03;;;18.94;37.11
58757;BME280;44527;47.460;19.016;2023-03-14T10:22:26;98927.37;;;18.87;36.96
58757;BME280;44527;47.460;19.016;2023-03-14T10:25:33;98921.41;;;19.06;37.21
58757;BME280;44527;47.460;19.016;2023-03-14T10:28:52;98911.34;;;19.23;36.16
58757;BME280;44527;47.460;19.016;2023-03-14T10:32:04;98908.69;;;19.01;36.27
58757;BME280;44527;47.460;19.016;2023-03-14T10:38:23;98896.50;;;18.71;36.91
58757;BME280;44527;47.460;19.016;2023-03-14T10:41:27;98895.87;;;18.69;37.08
58757;BME280;44527;47.460;19.016;2023-03-14T10:44:34;98894.84;;;18.70;37.19
58757;BME280;44527;47.460;19.016;2023-03-14T10:47:48;98893.63;;;18.87;37.34
58757;BME280;44527;47.460;19.016;2023-03-14T10:54:21;98894.88;;;19.13;36.84
58757;BME280;44527;47.460;19.016;2023-03-14T10:57:25;98880.50;;;19.28;36.53
58757;BME280;44527;47.460;19.016;2023-03-14T11:00:28;98872.47;;;19.50;36.68
58757;BME280;44527;47.460;19.016;2023-03-14T11:03:36;98864.87;;;19.75;36.19
58757;BME280;44527;47.460;19.016;2023-03-14T11:10:26;98856.75;;;19.62;35.62
58757;BME280;44527;47.460;19.016;2023-03-14T11:13:48;98854.16;;;19.40;35.91
58757;BME280;44527;47.460;19.016;2023-03-14T11:17:14;98841.87;;;19.39;36.45
58757;BME280;44527;47.460;19.016;2023-03-14T11:23:42;98852.59;;;19.52;36.13
58757;BME280;44527;47.460;19.016;2023-03-14T11:26:59;98845.91;;;19.63;36.20
58757;BME280;44527;47.460;19.016;2023-03-14T11:33:28;98823.84;;;19.35;36.49
58757;BME280;44527;47.460;19.016;2023-03-14T11:36:41;98813.16;;;19.28;36.55
58757;BME280;44527;47.460;19.016;2023-03-14T11:39:54;98818.22;;;19.16;36.50
58757;BME280;44527;47.460;19.016;2023-03-14T11:43:13;98812.37;;;19.06;36.95
58757;BME280;44527;47.460;19.016;2023-03-14T11:46:21;98804.31;;;19.21;36.82
58757;BME280;44527;47.460;19.016;2023-03-14T11:53:01;98806.28;;;19.68;35.79
58757;BME280;44527;47.460;19.016;2023-03-14T11:56:13;98811.00;;;19.80;35.69
58757;BME280;44527;47.460;19.016;2023-03-14T11:59:55;98795.69;;;19.88;35.57
58757;BME280;44527;47.460;19.016;2023-03-14T12:06:48;98788.31;;;20.52;35.08
58757;BME280;44527;47.460;19.016;2023-03-14T12:09:53;98777.47;;;20.73;33.42
58757;BME280;44527;47.460;19.016;2023-03-14T12:12:58;98783.19;;;20.70;34.02
58757;BME280;44527;47.460;19.016;2023-03-14T12:16:04;98777.44;;;20.60;33.97
58757;BME280;44527;47.460;19.016;2023-03-14T12:19:26;98773.75;;;20.74;34.14
58757;BME280;44527;47.460;19.016;2023-03-14T12:23:02;98765.53;;;20.96;33.74
58757;BME280;44527;47.460;19.016;2023-03-14T12:26:24;98761.19;;;21.28;34.04
58757;BME280;44527;47.460;19.016;2023-03-14T12:29:28;98756.28;;;21.18;33.90
58757;BME280;44527;47.460;19.016;2023-03-14T12:32:33;98750.16;;;20.84;33.77
58757;BME280;44527;47.460;19.016;2023-03-14T12:35:45;98759.81;;;20.52;34.41
58757;BME280;44527;47.460;19.016;2023-03-14T12:39:00;98745.59;;;20.38;34.94
58757;BME280;44527;47.460;19.016;2023-03-14T12:49:31;98740.56;;;19.76;35.25
58757;BME280;44527;47.460;19.016;2023-03-14T12:52:51;98726.63;;;19.73;36.33
58757;BME280;44527;47.460;19.016;2023-03-14T12:56:04;98725.84;;;19.86;35.94
58757;BME280;44527;47.460;19.016;2023-03-14T12:59:31;98721.53;;;19.79;36.34
58757;BME280;44527;47.460;19.016;2023-03-14T13:02:44;98716.50;;;19.56;36.55
58757;BME280;44527;47.460;19.016;2023-03-14T13:05:57;98715.81;;;19.40;36.83
58757;BME280;44527;47.460;19.016;2023-03-14T13:16:00;98709.88;;;19.03;37.11
58757;BME280;44527;47.460;19.016;2023-03-14T13:19:24;98708.62;;;18.93;37.47
58757;BME280;44527;47.460;19.016;2023-03-14T13:22:30;98695.44;;;18.78;37.45
58757;BME280;44527;47.460;19.016;2023-03-14T13:25:35;98701.69;;;18.70;37.76
58757;BME280;44527;47.460;19.016;2023-03-14T13:28:38;98700.63;;;18.65;37.74
58757;BME280;44527;47.460;19.016;2023-03-14T13:31:51;98700.88;;;18.48;38.36
58757;BME280;44527;47.460;19.016;2023-03-14T13:34:59;98706.09;;;18.35;38.57
58757;BME280;44527;47.460;19.016;2023-03-14T13:38:02;98710.28;;;18.23;38.96
58757;BME280;44527;47.460;19.016;2023-03-14T13:41:13;98721.22;;;18.13;39.46
58757;BME280;44527;47.460;19.016;2023-03-14T13:44:27;98725.72;;;18.12;39.35
58757;BME280;44527;47.460;19.016;2023-03-14T13:47:31;98721.44;;;17.97;39.59
58757;BME280;44527;47.460;19.016;2023-03-14T13:50:34;98716.12;;;17.97;40.05
58757;BME280;44527;47.460;19.016;2023-03-14T13:56:59;98715.53;;;17.95;40.57
58757;BME280;44527;47.460;19.016;2023-03-14T14:00:05;98705.22;;;17.85;40.15
58757;BME280;44527;47.460;19.016;2023-03-14T14:03:10;98709.69;;;17.84;40.42
58757;BME280;44527;47.460;19.016;2023-03-14T14:06:29;98717.97;;;17.96;39.53
58757;BME280;44527;47.460;19.016;2023-03-14T14:09:39;98721.28;;;17.98;40.01
58757;BME280;44527;47.460;19.016;2023-03-14T14:15:50;98713.63;;;17.88;40.98
58757;BME280;44527;47.460;19.016;2023-03-14T14:18:56;98711.31;;;18.00;39.73
58757;BME280;44527;47.460;19.016;2023-03-14T14:21:59;98700.53;;;18.08;40.51
58757;BME280;44527;47.460;19.016;2023-03-14T14:25:03;98704.84;;;18.09;40.17
58757;BME280;44527;47.460;19.016;2023-03-14T14:28:17;98709.19;;;18.17;39.66
58757;BME280;44527;47.460;19.016;2023-03-14T14:31:21;98704.09;;;18.16;39.89
58757;BME280;44527;47.460;19.016;2023-03-14T14:34:24;98712.13;;;18.22;40.28
58757;BME280;44527;47.460;19.016;2023-03-14T14:37:32;98694.34;;;18.23;40.23
58757;BME280;44527;47.460;19.016;2023-03-14T14:40:46;98695.53;;;18.20;40.29
58757;BME280;44527;47.460;19.016;2023-03-14T14:43:51;98700.84;;;18.20;40.97
58757;BME280;44527;47.460;19.016;2023-03-14T14:46:55;98699.03;;;18.21;41.17
58757;BME280;44527;47.460;19.016;2023-03-14T14:50:00;98695.28;;;18.15;41.54
58757;BME280;44527;47.460;19.016;2023-03-14T14:56:40;98686.81;;;18.26;39.42
58757;BME280;44527;47.460;19.016;2023-03-14T14:59:49;98679.59;;;18.42;38.75
58757;BME280;44527;47.460;19.016;2023-03-14T15:02:59;98681.34;;;18.28;38.76
58757;BME280;44527;47.460;19.016;2023-03-14T15:06:03;98685.56;;;18.22;39.25
58757;BME280;44527;47.460;19.016;2023-03-14T15:09:08;98683.63;;;18.09;39.55
58757;BME280;44527;47.460;19.016;2023-03-14T15:12:11;98689.53;;;18.11;40.08
58757;BME280;44527;47.460;19.016;2023-03-14T15:15:15;98698.78;;;17.94;40.27
58757;BME280;44527;47.460;19.016;2023-03-14T15:18:18;98694.59;;;17.85;40.39
58757;BME280;44527;47.460;19.016;2023-03-14T15:21:22;98706.41;;;17.82;40.51
58757;BME280;44527;47.460;19.016;2023-03-14T15:24:24;98705.91;;;17.57;40.27
58757;BME280;44527;47.460;19.016;2023-03-14T15:27:28;98713.78;;;17.36;40.99
58757;BME280;44527;47.460;19.016;2023-03-14T15:30:32;98707.41;;;17.15;41.49
58757;BME280;44527;47.460;19.016;2023-03-14T15:33:34;98711.81;;;17.08;41.75
58757;BME280;44527;47.460;19.016;2023-03-14T15:36:37;98718.38;;;17.12;41.48
58757;BME280;44527;47.460;19.016;2023-03-14T15:39:40;98719.56;;;17.10;41.49
58757;BME280;44527;47.460;19.016;2023-03-14T15:42:42;98716.47;;;17.21;40.54
58757;BME280;44527;47.460;19.016;2023-03-14T15:45:45;98723.13;;;17.02;40.89
58757;BME280;44527;47.460;19.016;2023-03-14T15:48:49;98732.06;;;16.86;41.67
58757;BME280;44527;47.460;19.016;2023-03-14T15:51:52;98766.63;;;16.70;41.32
58757;BME280;44527;47.460;19.016;2023-03-14T15:54:55;98787.25;;;16.60;48.39
58757;BME280;44527;47.460;19.016;2023-03-14T15:57:58;98786.63;;;16.35;50.90
58757;BME280;44527;47.460;19.016;2023-03-14T16:01:01;98784.47;;;16.07;56.05
58757;BME280;44527;47.460;19.016;2023-03-14T16:04:04;98787.03;;;15.92;59.01
58757;BME280;44527;47.460;19.016;2023-03-14T16:07:07;98793.06;;;15.70;62.27
58757;BME280;44527;47.460;19.016;2023-03-14T16:10:11;98785.03;;;15.47;67.19
58757;BME280;44527;47.460;19.016;2023-03-14T16:13:14;98784.13;;;15.15;69.80
58757;BME280;44527;47.460;19.016;2023-03-14T16:16:17;98787.66;;;14.83;71.49
58757;BME280;44527;47.460;19.016;2023-03-14T16:19:19;98785.00;;;14.58;75.69
58757;BME280;44527;47.460;19.016;2023-03-14T16:22:21;98784.47;;;14.38;78.67
58757;BME280;44527;47.460;19.016;2023-03-14T16:25:24;98779.81;;;14.16;77.91
58757;BME280;44527;47.460;19.016;2023-03-14T16:28:26;98782.44;;;14.08;78.97
58757;BME280;44527;47.460;19.016;2023-03-14T16:31:29;98785.88;;;13.92;80.30
58757;BME280;44527;47.460;19.016;2023-03-14T16:34:31;98781.09;;;13.87;79.41
58757;BME280;44527;47.460;19.016;2023-03-14T16:37:34;98784.19;;;13.74;81.67
58757;BME280;44527;47.460;19.016;2023-03-14T16:40:36;98793.75;;;13.75;79.82
58757;BME280;44527;47.460;19.016;2023-03-14T16:43:39;98809.84;;;13.64;80.42
58757;BME280;44527;47.460;19.016;2023-03-14T16:46:42;98814.78;;;13.59;81.05
58757;BME280;44527;47.460;19.016;2023-03-14T16:49:44;98826.87;;;13.44;82.75
58757;BME280;44527;47.460;19.016;2023-03-14T16:52:47;98832.91;;;13.36;83.77
58757;BME280;44527;47.460;19.016;2023-03-14T16:55:50;98839.50;;;13.32;84.13
58757;BME280;44527;47.460;19.016;2023-03-14T16:58:53;98851.84;;;13.31;85.21
58757;BME280;44527;47.460;19.016;2023-03-14T17:01:55;98847.03;;;13.09;87.62
58757;BME280;44527;47.460;19.016;2023-03-14T17:04:58;98856.13;;;13.15;87.06